Time;durP1;ratioP1;P1;durP2;ratioP2;P2;SDS_P1;SDS_P2;PMS_P1;PMS_P2;Temp;Humidity;BMP_temperature;BMP_pressure;BME280_temperature;BME280_humidity;BME280_pressure;Samples;Min_cycle;Max_cycle;Signal;HPM_P1;HPM_P2
2022/12/26 00:00:37;;;;;;;80.05;39.35;;;;;;;1.29;100.00;99193.06;4103711;85;22025;-88
2022/12/26 00:06:41;;;;;;;71.65;35.98;;;;;;;1.29;100.00;99209.23;4133482;83;21060;-87
2022/12/26 00:12:44;;;;;;;71.47;36.05;;;;;;;1.24;100.00;99205.32;4091917;85;21985;-88
2022/12/26 00:18:50;;;;;;;92.57;43.92;;;;;;;1.21;100.00;99187.06;4109657;85;21575;-88
2022/12/26 00:24:53;;;;;;;93.30;46.02;;;;;;;1.25;100.00;99169.17;4143948;83;21156;-88
2022/12/26 00:30:55;;;;;;;82.37;40.63;;;;;;;1.26;100.00;99135.16;4075921;86;20978;-87
2022/12/26 00:36:56;;;;;;;87.37;43.95;;;;;;;1.21;100.00;99123.70;4140916;85;21064;-88
2022/12/26 00:42:58;;;;;;;82.95;41.42;;;;;;;1.07;100.00;99125.14;4113169;85;21081;-88
2022/12/26 00:49:00;;;;;;;78.28;39.73;;;;;;;1.03;100.00;99119.34;4093258;85;21076;-88
2022/12/26 00:55:03;;;;;;;80.55;40.70;;;;;;;1.01;100.00;99129.08;4101661;85;21085;-88
2022/12/26 01:01:13;;;;;;;87.67;43.52;;;;;;;1.01;100.00;99125.03;4139307;83;21049;-89
2022/12/26 01:07:15;;;;;;;89.60;44.50;;;;;;;0.96;100.00;99128.40;4065267;85;21587;-88
2022/12/26 01:13:17;;;;;;;89.83;45.12;;;;;;;0.90;100.00;99125.59;4091700;85;21283;-88
2022/12/26 01:19:21;;;;;;;89.45;43.68;;;;;;;0.87;100.00;99104.66;4139037;84;21042;-88
2022/12/26 01:25:23;;;;;;;81.85;39.95;;;;;;;0.76;100.00;99107.36;4095841;84;21034;-88
2022/12/26 01:31:25;;;;;;;84.58;42.78;;;;;;;0.69;100.00;99111.06;4027534;86;21652;-88
2022/12/26 01:37:27;;;;;;;99.92;48.92;;;;;;;0.76;100.00;99118.14;4093674;85;21328;-88
2022/12/26 01:43:52;;;;;;;101.35;48.33;;;;;;;0.78;100.00;99108.66;4099503;85;21020;-88
2022/12/26 01:49:55;;;;;;;100.78;49.15;;;;;;;0.80;100.00;99101.05;4141001;85;21586;-88
2022/12/26 01:56:05;;;;;;;93.97;49.23;;;;;;;0.86;100.00;99112.51;4078986;84;21130;-88
2022/12/26 02:02:08;;;;;;;86.92;44.48;;;;;;;0.92;100.00;99081.63;4144376;84;21039;-89
2022/12/26 02:08:18;;;;;;;90.65;46.02;;;;;;;0.97;100.00;99098.44;4079228;85;21055;-90
2022/12/26 02:14:21;;;;;;;102.05;48.92;;;;;;;0.94;100.00;99095.59;4028879;87;22349;-88
2022/12/26 02:20:32;;;;;;;88.17;44.65;;;;;;;0.99;100.00;99081.95;4060674;85;21102;-87
2022/12/26 02:26:49;;;;;;;98.35;49.53;;;;;;;1.04;100.00;99071.05;4056568;86;21130;-88
2022/12/26 02:33:22;;;;;;;91.20;46.48;;;;;;;1.01;100.00;99077.05;3994932;88;22180;-88
2022/12/26 02:39:45;;;;;;;91.80;44.75;;;;;;;1.06;100.00;99065.60;4051628;85;21176;-88
2022/12/26 03:13:12;;;;;;;147.62;60.60;;;;;;;1.19;100.00;98954.13;4109915;84;21089;-89
2022/12/26 03:18:34;;;;;;;114.37;56.05;;;;;;;1.01;100.00;98967.34;4080478;84;21062;-88
2022/12/26 03:26:38;;;;;;;108.50;57.25;;;;;;;1.02;100.00;98993.72;4108786;85;21581;-88
2022/12/26 03:30:49;;;;;;;104.87;53.68;;;;;;;0.99;100.00;98988.95;4107449;84;21081;-88
2022/12/26 03:37:03;;;;;;;100.82;51.83;;;;;;;1.04;100.00;98988.82;4035044;87;21140;-88
2022/12/26 04:54:38;;;;;;;87.45;45.45;;;;;;;0.61;100.00;98917.27;4033913;87;21104;-88
2022/12/26 05:00:39;;;;;;;84.77;44.27;;;;;;;0.54;100.00;98917.47;4067156;85;21084;-88
2022/12/26 05:13:00;;;;;;;83.33;41.45;;;;;;;0.44;100.00;98915.84;4102220;85;21011;-88
2022/12/26 05:31:50;;;;;;;85.95;44.98;;;;;;;0.41;100.00;98929.94;4125628;85;21632;-88
2022/12/26 05:37:52;;;;;;;72.32;38.10;;;;;;;0.34;100.00;98934.98;4099669;85;21919;-88
2022/12/26 05:43:54;;;;;;;95.80;49.20;;;;;;;0.23;100.00;98942.28;4046420;87;21035;-88
2022/12/26 05:49:55;;;;;;;121.90;66.45;;;;;;;0.17;100.00;98944.86;4124600;85;21064;-88
2022/12/26 05:56:06;;;;;;;124.72;65.78;;;;;;;0.13;100.00;98942.53;4093428;84;21097;-88
2022/12/26 06:02:08;;;;;;;105.70;53.30;;;;;;;0.11;100.00;98947.45;4125194;85;22057;-88
2022/12/26 06:08:11;;;;;;;101.42;49.53;;;;;;;0.05;100.00;98957.53;4017416;87;21016;-88
2022/12/26 06:14:16;;;;;;;93.42;48.63;;;;;;;-0.10;100.00;98959.26;4028306;87;21007;-90
2022/12/26 06:20:17;;;;;;;118.75;63.40;;;;;;;-0.10;100.00;98977.55;4022442;86;21103;-88
2022/12/26 06:26:19;;;;;;;135.15;70.42;;;;;;;-0.14;100.00;98989.20;4026163;87;21980;-88
2022/12/26 06:32:21;;;;;;;147.22;77.08;;;;;;;-0.08;100.00;98975.33;4059856;85;21102;-89
2022/12/26 06:38:22;;;;;;;144.28;75.03;;;;;;;-0.02;100.00;98972.75;4029387;87;21076;-88
2022/12/26 06:44:24;;;;;;;159.35;78.37;;;;;;;0.03;100.00;98965.14;4022083;87;21977;-89
2022/12/26 06:50:26;;;;;;;145.53;77.12;;;;;;;0.03;100.00;98965.14;4055037;86;21908;-88
2022/12/26 06:56:30;;;;;;;149.72;78.92;;;;;;;-0.01;100.00;98983.78;4028542;87;21064;-88
2022/12/26 07:02:31;;;;;;;156.12;81.60;;;;;;;-0.04;100.00;98987.09;4031304;87;21718;-88
2022/12/26 07:08:33;;;;;;;141.28;74.97;;;;;;;-0.03;100.00;99004.81;4054590;86;21125;-88
2022/12/26 07:14:35;;;;;;;154.45;85.03;;;;;;;-0.01;100.00;98997.78;3993604;88;21633;-88
2022/12/26 07:20:37;;;;;;;147.78;80.42;;;;;;;-0.12;100.00;98981.09;4062331;86;22174;-88
2022/12/26 07:26:38;;;;;;;157.93;83.95;;;;;;;-0.12;100.00;98981.09;4055458;86;21078;-88
2022/12/26 07:32:40;;;;;;;150.57;81.15;;;;;;;-0.06;100.00;99000.05;4021665;87;21052;-88
2022/12/26 07:38:42;;;;;;;201.10;103.67;;;;;;;0.02;100.00;98971.59;4007469;87;21580;-88
2022/12/26 07:44:44;;;;;;;220.85;112.70;;;;;;;0.41;100.00;98966.86;4010666;87;21079;-88
2022/12/26 07:50:48;;;;;;;197.10;106.32;;;;;;;0.76;100.00;98958.62;4022858;87;21996;-88
2022/12/26 07:56:49;;;;;;;174.27;95.97;;;;;;;1.08;100.00;98973.05;4050478;86;21117;-88
2022/12/26 08:02:52;;;;;;;172.28;92.15;;;;;;;1.18;100.00;98978.16;4020808;87;21211;-88
2022/12/26 08:08:53;;;;;;;152.00;84.47;;;;;;;1.23;100.00;98996.91;4030180;86;21166;-88
2022/12/26 08:14:57;;;;;;;142.77;81.25;;;;;;;1.31;100.00;99006.92;3996528;86;21074;-88
2022/12/26 08:20:58;;;;;;;154.40;87.17;;;;;;;1.41;100.00;98996.36;3988794;88;21684;-89
2022/12/26 08:27:03;;;;;;;163.87;91.10;;;;;;;1.55;100.00;99012.66;4020742;87;21086;-88
2022/12/26 08:33:04;;;;;;;163.07;90.95;;;;;;;1.87;100.00;99007.38;4074720;84;21095;-88
2022/12/26 08:39:06;;;;;;;151.42;89.77;;;;;;;2.06;100.00;99018.65;4055405;86;21887;-87
2022/12/26 08:45:09;;;;;;;149.20;84.15;;;;;;;2.25;100.00;99025.87;4056248;86;21902;-88
2022/12/26 08:51:20;;;;;;;153.90;85.90;;;;;;;2.42;100.00;99029.89;4058688;86;20992;-89
2022/12/26 08:57:22;;;;;;;166.68;94.67;;;;;;;2.54;100.00;99031.38;4023959;87;21980;-88
2022/12/26 09:03:24;;;;;;;150.70;92.35;;;;;;;2.67;100.00;99039.05;3985497;88;21011;-88
2022/12/26 09:09:27;;;;;;;152.75;92.25;;;;;;;2.73;100.00;99029.66;4054964;85;21118;-88
2022/12/26 09:15:28;;;;;;;149.53;88.35;;;;;;;2.81;100.00;99030.19;4097901;86;21050;-88
2022/12/26 09:21:31;;;;;;;153.18;88.45;;;;;;;2.96;100.00;99031.80;4143293;83;21027;-88
2022/12/26 09:27:32;;;;;;;124.78;74.90;;;;;;;3.18;100.00;99033.45;4042422;86;21013;-88
2022/12/26 09:33:39;;;;;;;126.62;77.58;;;;;;;3.48;100.00;99027.52;4044127;86;21995;-87
2022/12/26 09:39:38;;;;;;;121.95;71.02;;;;;;;3.65;100.00;99016.00;4131372;83;21009;-89
2022/12/26 09:45:54;;;;;;;153.82;88.40;;;;;;;3.78;100.00;99011.45;4094468;86;21093;-89
2022/12/26 09:52:03;;;;;;;159.77;97.40;;;;;;;4.00;100.00;99020.60;4094983;85;21182;-88
2022/12/26 09:58:28;;;;;;;164.32;98.15;;;;;;;4.16;100.00;99018.33;4120525;83;21051;-88
2022/12/26 10:04:30;;;;;;;130.07;81.90;;;;;;;4.31;100.00;99010.13;4122762;83;21120;-89
2022/12/26 10:10:52;;;;;;;153.95;96.57;;;;;;;4.39;100.00;98997.86;4086465;85;21063;-88
2022/12/26 10:17:17;;;;;;;145.17;84.95;;;;;;;4.48;100.00;99003.98;4103977;84;21054;-88
2022/12/26 10:23:39;;;;;;;142.35;83.58;;;;;;;4.58;100.00;99014.42;4098303;85;22025;-88
2022/12/26 10:29:49;;;;;;;165.60;95.17;;;;;;;4.70;100.00;99004.95;4036964;85;21058;-89
2022/12/26 10:35:50;;;;;;;159.32;94.70;;;;;;;4.83;100.00;98984.06;4107563;85;21592;-88
2022/12/26 10:41:57;;;;;;;162.70;98.30;;;;;;;4.99;100.00;98998.56;4097972;84;21002;-88
2022/12/26 10:47:58;;;;;;;169.10;105.00;;;;;;;5.10;100.00;98975.27;4095517;85;21045;-89
2022/12/26 10:54:00;;;;;;;168.57;101.60;;;;;;;5.12;100.00;98957.30;4090151;85;21991;-88
2022/12/26 11:00:13;;;;;;;165.90;96.37;;;;;;;5.17;100.00;98945.64;4092950;85;21093;-88
2022/12/26 11:06:17;;;;;;;159.70;96.42;;;;;;;5.20;100.00;98937.40;4097695;85;21054;-89
2022/12/26 11:12:39;;;;;;;149.40;88.58;;;;;;;5.24;100.00;98928.78;4012952;87;21127;-89
2022/12/26 11:18:50;;;;;;;142.87;86.32;;;;;;;5.36;100.00;98926.05;4042456;87;21117;-89
2022/12/26 11:25:16;;;;;;;144.43;89.92;;;;;;;5.52;100.00;98911.99;4127144;85;20981;-89
2022/12/26 11:31:30;;;;;;;120.13;71.27;;;;;;;5.68;100.00;98923.72;4186172;82;21787;-89
2022/12/26 11:37:37;;;;;;;155.70;94.60;;;;;;;5.91;100.00;98937.02;4181631;83;21041;-89
2022/12/26 11:43:39;;;;;;;134.57;82.57;;;;;;;6.13;100.00;98944.64;4209976;83;21081;-88
2022/12/26 11:49:48;;;;;;;130.10;76.50;;;;;;;6.11;100.00;98938.19;4208862;82;21118;-89
2022/12/26 11:56:04;;;;;;;129.55;78.17;;;;;;;6.03;100.00;98932.89;4222221;82;21045;-89
2022/12/26 12:02:20;;;;;;;121.13;72.78;;;;;;;5.89;100.00;98927.06;4220634;82;21064;-88
2022/12/26 12:08:44;;;;;;;119.90;73.70;;;;;;;5.82;100.00;98915.45;4206281;83;21727;-89
2022/12/26 12:15:16;;;;;;;129.55;78.02;;;;;;;5.84;100.00;98900.16;4219183;82;21063;-89
2022/12/26 12:21:35;;;;;;;126.25;76.37;;;;;;;5.88;100.00;98888.26;4211965;82;21521;-88
2022/12/26 12:28:05;;;;;;;115.72;68.92;;;;;;;5.92;100.00;98893.20;4215479;83;21041;-89
2022/12/26 12:34:34;;;;;;;108.27;64.85;;;;;;;6.13;100.00;98883.48;4215345;82;21096;-90
2022/12/26 12:41:02;;;;;;;103.32;64.22;;;;;;;6.47;100.00;98880.09;4209801;82;21024;-89
2022/12/26 12:47:27;;;;;;;114.85;72.22;;;;;;;6.84;100.00;98858.86;4180679;82;21025;-89
2022/12/26 12:53:57;;;;;;;111.20;65.40;;;;;;;7.01;100.00;98874.80;4220713;82;21033;-89
2022/12/26 13:00:16;;;;;;;94.83;54.98;;;;;;;6.94;100.00;98867.27;4217513;82;21763;-88
2022/12/26 13:06:29;;;;;;;31.73;18.80;;;;;;;6.98;100.00;98861.91;4216736;83;21104;-90
2022/12/26 13:12:36;;;;;;;86.60;53.45;;;;;;;7.18;100.00;98856.16;4219830;82;22006;-89
2022/12/26 13:18:43;;;;;;;121.60;75.40;;;;;;;7.32;100.00;98851.58;4212980;83;21001;-90
2022/12/26 13:24:50;;;;;;;142.15;84.67;;;;;;;7.24;100.00;98853.93;4216232;83;21144;-89
2022/12/26 13:30:54;;;;;;;123.67;74.27;;;;;;;7.02;100.00;98862.77;4213561;82;21056;-89
2022/12/26 13:36:59;;;;;;;125.53;77.93;;;;;;;6.83;100.00;98870.89;4188791;82;21536;-89
2022/12/26 13:44:01;;;;;;;141.60;84.55;;;;;;;6.60;100.00;98874.00;4215406;83;21032;-89
2022/12/26 13:49:38;;;;;;;142.18;89.75;;;;;;;6.34;100.00;98894.34;4186404;83;21092;-89
2022/12/26 13:55:43;;;;;;;142.03;88.80;;;;;;;6.20;100.00;98882.33;4218013;83;21726;-89
2022/12/26 14:02:10;;;;;;;153.53;93.97;;;;;;;6.12;100.00;98888.70;4215455;82;21021;-90
2022/12/26 14:08:35;;;;;;;140.20;89.37;;;;;;;6.01;100.00;98908.02;4225697;82;21049;-89
2022/12/26 14:14:59;;;;;;;150.07;94.20;;;;;;;5.93;100.00;98898.08;4217304;82;21056;-89
2022/12/26 14:21:22;;;;;;;149.97;90.20;;;;;;;5.91;100.00;98890.28;4221310;83;20992;-89
2022/12/26 14:27:47;;;;;;;142.13;87.27;;;;;;;5.79;100.00;98899.02;4220574;82;21496;-88
2022/12/26 14:34:17;;;;;;;147.87;92.75;;;;;;;5.64;100.00;98893.73;4217528;83;21572;-90
2022/12/26 14:40:36;;;;;;;146.25;86.60;;;;;;;5.55;100.00;98878.16;4219434;82;21009;-89
2022/12/26 14:46:43;;;;;;;136.55;81.92;;;;;;;5.48;100.00;98877.17;4214110;82;21591;-89
2022/12/26 14:52:56;;;;;;;136.22;82.45;;;;;;;5.43;100.00;98893.14;4214820;82;21016;-89
2022/12/26 14:59:33;;;;;;;152.15;88.07;;;;;;;5.40;100.00;98901.97;4212074;82;21000;-89
2022/12/26 15:05:42;;;;;;;145.20;86.20;;;;;;;5.43;100.00;98890.98;4213906;82;21628;-89
2022/12/26 15:12:39;;;;;;;130.65;77.85;;;;;;;5.49;100.00;98895.83;4195094;82;21481;-89
2022/12/26 15:19:20;;;;;;;98.80;61.20;;;;;;;5.62;100.00;98896.59;4133282;85;21000;-88
2022/12/26 15:25:54;;;;;;;99.97;57.73;;;;;;;5.68;100.00;98904.16;4170063;84;21018;-89
2022/12/26 15:32:25;;;;;;;99.42;56.70;;;;;;;5.74;100.00;98898.70;4127193;85;21045;-89
2022/12/26 15:38:53;;;;;;;93.45;57.30;;;;;;;5.81;100.00;98888.02;4169026;84;21508;-89
2022/12/26 15:45:30;;;;;;;88.75;52.17;;;;;;;5.88;100.00;98890.17;4240457;82;21718;-88
2022/12/26 15:51:49;;;;;;;86.30;51.00;;;;;;;5.82;100.00;98884.22;4238734;82;21007;-89
2022/12/26 15:58:08;;;;;;;87.42;50.05;;;;;;;5.82;100.00;98879.34;4242099;82;21056;-88
2022/12/26 16:04:28;;;;;;;88.15;51.50;;;;;;;5.73;100.00;98880.80;4097339;85;21514;-89
2022/12/26 16:10:34;;;;;;;91.95;51.65;;;;;;;5.68;100.00;98878.91;4093852;84;21035;-89
2022/12/26 16:16:37;;;;;;;86.30;48.87;;;;;;;5.64;100.00;98863.06;4130652;85;21063;-89
2022/12/26 16:22:49;;;;;;;87.82;49.83;;;;;;;5.69;100.00;98865.55;4141817;84;21682;-88
2022/12/26 16:28:49;;;;;;;84.40;47.27;;;;;;;5.73;100.00;98867.22;4123448;85;21956;-90
2022/12/26 16:34:58;;;;;;;82.37;48.85;;;;;;;5.75;100.00;98869.03;4188101;83;20993;-89
2022/12/26 16:41:40;;;;;;;;;;;;;;;;;;;;;
2022/12/26 16:47:43;;;;;;;76.07;44.63;;;;;;;5.71;100.00;98861.37;4145898;83;20997;-89
2022/12/26 16:53:44;;;;;;;80.47;47.13;;;;;;;5.71;100.00;98877.66;4194260;83;21424;-89
2022/12/26 16:59:56;;;;;;;76.47;45.05;;;;;;;5.66;100.00;98887.41;4195139;83;21007;-88
2022/12/26 17:05:59;;;;;;;78.78;45.33;;;;;;;5.61;100.00;98893.08;4193460;82;21441;-89
2022/12/26 17:12:11;;;;;;;70.22;44.77;;;;;;;5.65;100.00;98895.90;4077143;83;10000111;-89
2022/12/26 17:18:44;;;;;;;74.35;42.83;;;;;;;5.70;100.00;98918.16;4198280;83;20960;-88
2022/12/26 17:24:49;;;;;;;71.85;43.60;;;;;;;5.68;100.00;98934.59;4190371;83;21031;-87
2022/12/26 17:30:52;;;;;;;86.42;50.12;;;;;;;5.52;100.00;98949.45;4153622;84;20972;-87
2022/12/26 17:37:03;;;;;;;90.80;52.98;;;;;;;5.47;100.00;98953.75;4136560;84;20990;-86
2022/12/26 17:43:16;;;;;;;78.10;47.05;;;;;;;5.53;100.00;98951.02;4195733;83;21008;-87
2022/12/26 17:49:19;;;;;;;45.92;27.85;;;;;;;5.64;100.00;98933.67;4210542;82;20991;-87
2022/12/26 17:55:26;;;;;;;28.62;15.60;;;;;;;5.98;100.00;98918.22;4155694;84;21007;-87
2022/12/26 18:01:27;;;;;;;31.07;16.77;;;;;;;6.49;100.00;98873.75;4132549;85;21016;-86
2022/12/26 18:07:29;;;;;;;24.27;14.68;;;;;;;6.96;100.00;98856.82;4155270;84;21256;-87
2022/12/26 18:13:31;;;;;;;19.80;13.03;;;;;;;7.10;100.00;98848.97;4136393;84;21010;-87
2022/12/26 18:19:36;;;;;;;23.12;13.13;;;;;;;7.21;100.00;98842.39;4210223;83;21653;-86
2022/12/26 18:25:37;;;;;;;21.48;12.58;;;;;;;7.29;100.00;98824.50;4161144;84;22233;-87
2022/12/26 18:31:39;;;;;;;19.73;11.78;;;;;;;7.39;100.00;98816.34;4158542;84;20972;-87
2022/12/26 18:37:45;;;;;;;18.07;10.55;;;;;;;7.40;100.00;98830.16;4133166;85;20993;-87
2022/12/26 18:43:47;;;;;;;20.30;11.63;;;;;;;7.26;100.00;98855.17;4162040;83;21010;-87
2022/12/26 18:49:49;;;;;;;20.85;11.83;;;;;;;7.20;100.00;98895.28;4118853;84;21011;-88
2022/12/26 18:55:52;;;;;;;21.50;14.65;;;;;;;7.21;100.00;98884.03;4116919;84;21005;-90
2022/12/26 19:01:54;;;;;;;22.30;13.40;;;;;;;7.09;100.00;98883.36;4160345;84;20956;-86
2022/12/26 19:07:57;;;;;;;22.25;13.60;;;;;;;6.99;100.00;98878.44;4181891;83;21813;-87
2022/12/26 19:13:59;;;;;;;22.70;14.25;;;;;;;6.83;100.00;98866.81;4166154;83;21085;-88
2022/12/26 19:20:21;;;;;;;17.80;12.73;;;;;;;6.74;100.00;98863.47;4133845;83;21047;-87
2022/12/26 19:26:24;;;;;;;20.72;12.28;;;;;;;6.68;100.00;98870.31;4069901;85;20970;-87
2022/12/26 19:32:26;;;;;;;22.10;13.03;;;;;;;6.64;100.00;98878.98;4136393;83;21029;-86
2022/12/26 19:38:28;;;;;;;20.00;12.53;;;;;;;6.61;100.00;98899.48;4131791;85;21031;-86
2022/12/26 19:44:30;;;;;;;21.95;13.38;;;;;;;6.54;100.00;98906.13;4093029;85;21007;-87
2022/12/26 19:50:32;;;;;;;20.57;12.63;;;;;;;6.47;100.00;98911.95;4133542;83;21064;-88
2022/12/26 19:56:34;;;;;;;25.75;15.23;;;;;;;6.33;100.00;98927.31;4090943;85;21084;-88
2022/12/26 20:02:35;;;;;;;25.37;15.65;;;;;;;6.28;100.00;98936.52;4134415;85;21050;-87
2022/12/26 20:08:38;;;;;;;22.37;13.40;;;;;;;6.36;100.00;98908.38;4084890;85;22011;-87
2022/12/26 20:14:39;;;;;;;22.00;13.25;;;;;;;6.40;100.00;98923.44;4133895;83;21019;-87
2022/12/26 20:20:41;;;;;;;21.68;12.65;;;;;;;6.32;100.00;98933.34;4130146;84;21012;-87
2022/12/26 20:26:43;;;;;;;20.12;12.75;;;;;;;6.22;100.00;98933.84;4129145;84;21008;-87
2022/12/26 20:32:46;;;;;;;26.45;15.43;;;;;;;6.24;100.00;98938.36;4107568;85;20977;-87
2022/12/26 20:38:58;;;;;;;22.35;14.13;;;;;;;6.22;100.00;98934.39;4105906;84;21517;-88
2022/12/26 20:44:59;;;;;;;22.52;14.05;;;;;;;6.18;100.00;98925.37;4129045;84;21059;-88
2022/12/26 20:51:05;;;;;;;19.32;12.40;;;;;;;6.16;100.00;98933.06;4139975;85;21008;-88
2022/12/26 20:57:06;;;;;;;17.90;11.08;;;;;;;6.07;100.00;98940.03;4138228;85;21008;-89
2022/12/26 21:03:08;;;;;;;20.27;11.48;;;;;;;6.09;100.00;98938.33;4105387;85;21080;-88
2022/12/26 21:09:10;;;;;;;16.55;9.73;;;;;;;6.12;100.00;98962.09;4097572;84;21576;-87
2022/12/26 21:15:11;;;;;;;17.73;9.80;;;;;;;6.16;100.00;98967.05;4157197;83;21019;-88
2022/12/26 21:21:19;;;;;;;12.95;9.08;;;;;;;6.26;100.00;98970.05;4191130;83;21031;-88
2022/12/26 21:27:20;;;;;;;15.45;9.33;;;;;;;6.36;100.00;98971.48;4154832;84;20986;-87
2022/12/26 21:33:22;;;;;;;16.02;9.83;;;;;;;6.43;100.00;98974.40;4150225;84;21460;-87
2022/12/26 21:39:24;;;;;;;14.28;9.95;;;;;;;6.52;100.00;98968.78;4133634;85;21005;-88
2022/12/26 21:45:26;;;;;;;14.78;9.08;;;;;;;6.62;100.00;98992.77;4157027;83;21508;-88
2022/12/26 21:51:28;;;;;;;15.72;9.80;;;;;;;6.58;100.00;98983.14;4172976;84;21011;-87
2022/12/26 21:57:33;;;;;;;20.32;12.65;;;;;;;6.60;100.00;98986.87;4164655;84;21862;-88
2022/12/26 22:09:56;;;;;;;28.77;16.25;;;;;;;6.53;100.00;98990.19;4137647;83;21057;-88
2022/12/26 22:16:02;;;;;;;27.15;15.13;;;;;;;6.42;100.00;98982.34;4154323;84;21007;-88
2022/12/26 22:22:04;;;;;;;30.50;16.70;;;;;;;6.42;100.00;98970.11;4133512;85;21834;-88
2022/12/26 22:28:06;;;;;;;28.87;15.43;;;;;;;6.45;100.00;98981.65;4156625;83;20983;-88
2022/12/26 22:34:12;;;;;;;29.37;16.57;;;;;;;6.44;100.00;98967.81;4138762;83;21117;-88
2022/12/26 22:40:13;;;;;;;33.53;19.30;;;;;;;6.46;100.00;98968.27;4194617;83;21001;-87
2022/12/26 22:46:15;;;;;;;27.27;17.37;;;;;;;6.55;100.00;98974.88;4195206;83;20998;-88
2022/12/26 22:52:17;;;;;;;27.48;17.05;;;;;;;6.50;100.00;98962.92;4191352;83;21599;-88
2022/12/26 22:58:19;;;;;;;24.72;14.15;;;;;;;6.48;100.00;98971.99;4195654;83;21047;-88
2022/12/26 23:04:21;;;;;;;28.02;16.27;;;;;;;6.45;100.00;98976.77;4148857;83;21007;-87
2022/12/26 23:10:23;;;;;;;26.23;14.35;;;;;;;6.40;100.00;98975.87;4145002;85;21009;-88
2022/12/26 23:16:39;;;;;;;23.38;14.98;;;;;;;6.35;100.00;98967.98;4158952;83;21038;-87
2022/12/26 23:22:41;;;;;;;25.60;13.93;;;;;;;6.34;100.00;98958.82;4135981;85;20962;-88
2022/12/26 23:35:05;;;;;;;23.62;13.95;;;;;;;6.23;100.00;98943.56;4141068;85;21000;-87
2022/12/26 23:41:07;;;;;;;25.10;14.58;;;;;;;6.19;100.00;98941.33;4160235;84;21480;-88
2022/12/26 23:47:09;;;;;;;23.62;13.40;;;;;;;6.18;100.00;98940.31;4137268;85;21010;-87
2022/12/26 23:53:10;;;;;;;21.65;13.18;;;;;;;6.20;100.00;98922.51;4165199;84;21008;-87
2022/12/26 23:59:11;;;;;;;21.25;12.95;;;;;;;6.17;100.00;98919.72;4118955;84;20971;-87
